Time;durP1;ratioP1;P1;durP2;ratioP2;P2;SDS_P1;SDS_P2;PMS_P1;PMS_P2;Temp;Humidity;BMP_temperature;BMP_pressure;BME280_temperature;BME280_humidity;BME280_pressure;Samples;Min_cycle;Max_cycle;Signal;HPM_P1;HPM_P2
2023/12/16 00:00:08;;;;;;;19.77;10.43;;;;;1.70;96004.00;;;;7402632;19;20124;-79
2023/12/16 00:02:45;;;;;;;19.73;10.17;;;;;1.70;96023.00;;;;7388269;19;20132;-79
2023/12/16 00:05:14;;;;;;;19.57;10.83;;;;;1.70;96019.00;;;;7399431;19;20140;-79
2023/12/16 00:07:48;;;;;;;16.40;9.90;;;;;1.70;96021.00;;;;7400500;19;20660;-78
2023/12/16 00:10:22;;;;;;;20.17;10.37;;;;;1.80;96035.00;;;;7400386;19;20142;-78
2023/12/16 00:12:57;;;;;;;18.00;10.27;;;;;1.70;96043.00;;;;7400023;19;20180;-78
2023/12/16 00:15:27;;;;;;;18.30;10.57;;;;;1.50;96040.00;;;;7400817;19;20125;-79
2023/12/16 00:18:01;;;;;;;19.73;10.20;;;;;1.30;96038.00;;;;7400354;19;20121;-80
2023/12/16 00:20:35;;;;;;;22.57;9.93;;;;;1.20;96025.00;;;;7401240;19;20128;-79
2023/12/16 00:23:10;;;;;;;26.07;10.63;;;;;1.10;96013.00;;;;7399063;19;20152;-77
2023/12/16 00:25:44;;;;;;;17.30;8.73;;;;;1.10;96014.00;;;;7399817;19;20148;-77
2023/12/16 00:28:12;;;;;;;16.93;8.87;;;;;1.10;96018.00;;;;7400490;19;20150;-77
2023/12/16 00:30:39;;;;;;;15.10;8.37;;;;;1.30;96007.00;;;;7400246;19;20145;-80
2023/12/16 00:33:13;;;;;;;17.23;8.33;;;;;1.50;96022.00;;;;7399092;19;20133;-78
2023/12/16 00:35:49;;;;;;;17.30;8.67;;;;;1.60;96022.00;;;;7398281;19;20161;-77
2023/12/16 00:38:23;;;;;;;13.60;7.47;;;;;1.70;96010.00;;;;7399540;19;20152;-77
2023/12/16 00:40:51;;;;;;;13.17;8.13;;;;;1.90;96019.00;;;;7397920;19;20226;-77
2023/12/16 00:43:25;;;;;;;12.97;7.87;;;;;1.90;96025.00;;;;7400035;19;20795;-78
2023/12/16 00:45:53;;;;;;;12.50;7.43;;;;;2.00;96018.00;;;;7400057;19;20131;-77
2023/12/16 00:48:21;;;;;;;17.53;8.00;;;;;2.00;96020.00;;;;7398662;19;20155;-76
2023/12/16 00:51:09;;;;;;;12.23;7.70;;;;;2.00;96029.00;;;;7399649;19;20476;-76
2023/12/16 00:53:36;;;;;;;14.23;7.43;;;;;2.00;96022.00;;;;7398589;19;20132;-78
2023/12/16 00:56:19;;;;;;;14.03;7.90;;;;;2.00;96035.00;;;;7399740;19;20124;-77
2023/12/16 00:58:50;;;;;;;13.60;7.97;;;;;2.00;96024.00;;;;7397928;19;20164;-77
2023/12/16 01:01:24;;;;;;;14.57;7.43;;;;;1.90;96020.00;;;;7397767;19;20136;-76
2023/12/16 01:03:52;;;;;;;15.23;7.43;;;;;1.90;96026.00;;;;7398243;19;20487;-76
2023/12/16 01:06:27;;;;;;;16.67;7.97;;;;;1.70;96027.00;;;;7398286;19;20137;-76
2023/12/16 01:09:00;;;;;;;14.17;7.93;;;;;1.70;96033.00;;;;7397679;19;20155;-76
2023/12/16 01:11:35;;;;;;;14.97;8.13;;;;;1.70;96033.00;;;;7399436;19;20157;-78
2023/12/16 01:14:09;;;;;;;15.17;7.90;;;;;1.70;96044.00;;;;7397315;19;20148;-77
2023/12/16 01:16:43;;;;;;;12.63;7.53;;;;;1.60;96049.00;;;;7398389;19;20128;-77
2023/12/16 01:19:19;;;;;;;12.17;7.50;;;;;1.60;96043.00;;;;7398017;19;20145;-77
2023/12/16 01:21:53;;;;;;;16.47;8.00;;;;;1.50;96055.00;;;;7398469;19;20715;-76
2023/12/16 01:24:29;;;;;;;12.83;7.30;;;;;1.70;96058.00;;;;7398128;19;20553;-77
2023/12/16 01:26:56;;;;;;;12.60;7.60;;;;;1.70;96060.00;;;;7406062;19;20121;-76
2023/12/16 01:29:30;;;;;;;13.20;8.00;;;;;1.60;96063.00;;;;7404517;19;20480;-77
2023/12/16 01:32:00;;;;;;;16.60;7.97;;;;;1.60;96057.00;;;;7406687;19;20149;-77
2023/12/16 01:34:34;;;;;;;12.20;7.43;;;;;1.70;96055.00;;;;7405426;19;20166;-76
2023/12/16 01:37:01;;;;;;;13.30;8.07;;;;;1.80;96046.00;;;;7404005;19;20129;-77
2023/12/16 01:39:35;;;;;;;15.10;7.30;;;;;1.70;96054.00;;;;7404885;19;20607;-78
2023/12/16 01:42:10;;;;;;;12.07;7.23;;;;;1.80;96056.00;;;;7404392;19;20137;-77
2023/12/16 01:44:37;;;;;;;16.83;7.80;;;;;1.80;96063.00;;;;7401376;19;20139;-77
2023/12/16 01:47:12;;;;;;;15.87;7.57;;;;;1.90;96055.00;;;;7403613;19;20144;-77
2023/12/16 01:49:41;;;;;;;13.20;7.93;;;;;1.90;96061.00;;;;7405808;19;20196;-77
2023/12/16 01:52:21;;;;;;;15.07;8.03;;;;;1.80;96048.00;;;;7402964;19;20730;-76
2023/12/16 01:54:50;;;;;;;14.70;8.03;;;;;1.80;96050.00;;;;7403731;19;20125;-77
2023/12/16 01:57:25;;;;;;;14.17;7.47;;;;;1.70;96051.00;;;;7404145;19;20132;-76
2023/12/16 01:59:53;;;;;;;12.47;6.67;;;;;1.80;96053.00;;;;7404259;19;20137;-76
2023/12/16 02:02:22;;;;;;;13.77;7.70;;;;;1.70;96058.00;;;;7404421;19;20604;-76
2023/12/16 02:04:56;;;;;;;19.27;7.80;;;;;1.70;96051.00;;;;7402453;19;20139;-77
2023/12/16 02:07:24;;;;;;;16.37;8.67;;;;;1.80;96044.00;;;;7403450;19;20516;-78
2023/12/16 02:09:58;;;;;;;14.20;8.50;;;;;1.80;96051.00;;;;7404055;19;20165;-77
2023/12/16 02:12:35;;;;;;;20.43;8.57;;;;;1.70;96058.00;;;;7402282;19;20148;-76
2023/12/16 02:15:10;;;;;;;13.43;7.77;;;;;1.80;96057.00;;;;7404204;19;20129;-76
2023/12/16 02:17:37;;;;;;;13.83;8.10;;;;;1.80;96051.00;;;;7404672;19;20130;-77
2023/12/16 02:20:14;;;;;;;14.73;7.70;;;;;2.00;96044.00;;;;7403361;19;20203;-77
2023/12/16 02:22:45;;;;;;;15.60;7.87;;;;;1.80;96051.00;;;;7400115;19;20166;-76
2023/12/16 02:25:20;;;;;;;14.83;8.33;;;;;1.90;96055.00;;;;7393879;19;20136;-76
2023/12/16 02:27:58;;;;;;;15.27;8.90;;;;;1.80;96049.00;;;;7404207;19;20192;-76
2023/12/16 02:30:32;;;;;;;13.73;7.63;;;;;1.70;96057.00;;;;7402864;19;20219;-77
2023/12/16 02:33:00;;;;;;;17.00;7.90;;;;;1.70;96051.00;;;;7403365;19;20133;-77
2023/12/16 02:35:28;;;;;;;15.53;8.40;;;;;2.00;96063.00;;;;7402743;19;20621;-78
2023/12/16 02:38:04;;;;;;;19.63;8.80;;;;;1.90;96045.00;;;;7401718;19;20136;-77
2023/12/16 02:40:31;;;;;;;19.13;9.37;;;;;1.80;96071.00;;;;7402450;19;20133;-77
2023/12/16 02:42:59;;;;;;;17.17;9.33;;;;;1.80;96073.00;;;;7404257;19;20137;-76
2023/12/16 02:45:33;;;;;;;18.13;9.27;;;;;1.80;96067.00;;;;7400245;19;20148;-76
2023/12/16 02:48:01;;;;;;;19.83;9.43;;;;;1.70;96071.00;;;;7402662;19;20606;-76
2023/12/16 02:50:30;;;;;;;16.03;9.13;;;;;1.60;96062.00;;;;7401601;19;20164;-76
2023/12/16 02:53:11;;;;;;;15.63;8.40;;;;;1.60;96077.00;;;;7399461;19;20634;-77
2023/12/16 02:55:45;;;;;;;18.73;9.30;;;;;1.60;96078.00;;;;7401184;19;20482;-76
2023/12/16 02:58:19;;;;;;;17.37;8.97;;;;;1.60;96078.00;;;;7401383;19;20141;-76
2023/12/16 03:00:47;;;;;;;19.90;9.37;;;;;1.70;96086.00;;;;7400439;19;20145;-75
2023/12/16 03:03:16;;;;;;;21.83;9.23;;;;;1.70;96088.00;;;;7401082;19;20145;-76
2023/12/16 03:05:53;;;;;;;17.53;9.30;;;;;1.70;96085.00;;;;7398692;19;20155;-76
2023/12/16 03:08:26;;;;;;;18.60;9.67;;;;;1.60;96090.00;;;;7401404;19;20144;-75
2023/12/16 03:10:54;;;;;;;16.23;7.87;;;;;1.70;96083.00;;;;7402297;19;20178;-75
2023/12/16 03:13:28;;;;;;;18.90;9.40;;;;;1.60;96088.00;;;;7399939;19;20164;-75
2023/12/16 03:16:00;;;;;;;15.67;7.93;;;;;1.60;96086.00;;;;7402128;19;20142;-76
2023/12/16 03:18:29;;;;;;;19.27;8.63;;;;;1.50;96095.00;;;;7401655;19;20137;-76
2023/12/16 03:21:07;;;;;;;18.10;8.23;;;;;1.50;96091.00;;;;7400504;19;20139;-75
2023/12/16 03:23:35;;;;;;;15.33;8.17;;;;;1.60;96095.00;;;;7401159;19;20149;-75
2023/12/16 03:26:09;;;;;;;17.43;8.17;;;;;1.50;96090.00;;;;7400467;19;20202;-75
2023/12/16 03:28:43;;;;;;;19.63;8.40;;;;;1.30;96093.00;;;;7400373;19;20145;-75
2023/12/16 03:31:19;;;;;;;14.30;7.90;;;;;1.50;96090.00;;;;7400607;19;20133;-74
2023/12/16 03:33:53;;;;;;;18.70;8.67;;;;;1.30;96097.00;;;;7401350;19;20147;-76
2023/12/16 03:36:29;;;;;;;15.77;7.97;;;;;1.30;96095.00;;;;7399582;19;20183;-75
2023/12/16 03:39:02;;;;;;;11.90;6.97;;;;;1.20;96095.00;;;;7400997;19;20715;-76
2023/12/16 03:41:37;;;;;;;13.80;6.83;;;;;1.00;96084.00;;;;7400053;19;20608;-75
2023/12/16 03:44:06;;;;;;;11.20;6.43;;;;;0.90;96093.00;;;;7401435;19;20601;-76
2023/12/16 03:46:40;;;;;;;16.20;6.00;;;;;1.00;96091.00;;;;7397527;19;20140;-76
2023/12/16 03:49:10;;;;;;;15.80;6.90;;;;;0.90;96088.00;;;;7398870;19;20593;-75
2023/12/16 03:51:56;;;;;;;15.03;6.23;;;;;0.90;96095.00;;;;7398944;19;20168;-75
2023/12/16 03:54:31;;;;;;;13.43;6.33;;;;;0.90;96090.00;;;;7400593;19;20145;-78
2023/12/16 03:57:05;;;;;;;11.63;5.60;;;;;0.90;96091.00;;;;7399956;19;20620;-78
2023/12/16 03:59:41;;;;;;;13.87;6.53;;;;;0.90;96079.00;;;;7400076;19;20195;-80
2023/12/16 04:02:10;;;;;;;12.63;6.67;;;;;1.10;96089.00;;;;7399107;19;20647;-79
2023/12/16 04:04:45;;;;;;;12.73;5.93;;;;;0.80;96079.00;;;;7398687;19;20179;-80
2023/12/16 04:07:13;;;;;;;17.30;7.30;;;;;0.60;96078.00;;;;7399020;19;20171;-78
2023/12/16 04:09:48;;;;;;;13.90;6.17;;;;;0.50;96082.00;;;;7399249;19;20494;-80
2023/12/16 04:12:16;;;;;;;15.47;6.70;;;;;0.60;96092.00;;;;7399358;19;20165;-79
2023/12/16 04:14:53;;;;;;;20.97;7.03;;;;;0.60;96094.00;;;;7398190;19;20230;-79
2023/12/16 04:17:21;;;;;;;12.50;6.67;;;;;0.60;96103.00;;;;7398500;19;20200;-78
2023/12/16 04:19:55;;;;;;;12.43;6.63;;;;;0.90;96101.00;;;;7397801;19;20622;-79
2023/12/16 04:22:22;;;;;;;16.63;7.57;;;;;1.00;96091.00;;;;7400392;19;20125;-82
2023/12/16 04:24:57;;;;;;;12.70;7.50;;;;;1.00;96087.00;;;;7399422;19;20606;-81
2023/12/16 04:27:33;;;;;;;13.37;7.03;;;;;1.10;96088.00;;;;7398735;19;20133;-80
2023/12/16 04:30:08;;;;;;;12.47;6.93;;;;;1.20;96099.00;;;;7398443;19;20663;-80
2023/12/16 04:32:44;;;;;;;22.70;7.53;;;;;1.40;96089.00;;;;7398339;19;20601;-80
2023/12/16 04:35:19;;;;;;;14.93;7.37;;;;;1.30;96088.00;;;;7398961;19;20227;-79
2023/12/16 04:37:55;;;;;;;15.47;7.57;;;;;1.20;96091.00;;;;7398992;19;20129;-79
2023/12/16 04:40:29;;;;;;;20.80;7.77;;;;;1.20;96092.00;;;;7397892;19;20156;-79
2023/12/16 04:42:59;;;;;;;15.27;7.30;;;;;1.40;96098.00;;;;7398655;19;20133;-80
2023/12/16 04:45:29;;;;;;;13.30;6.93;;;;;1.20;96092.00;;;;7397636;19;20546;-79
2023/12/16 04:48:03;;;;;;;13.17;6.77;;;;;1.20;96086.00;;;;7399448;19;20538;-79
2023/12/16 04:50:38;;;;;;;13.60;6.63;;;;;1.20;96084.00;;;;7397673;19;20616;-79
2023/12/16 04:53:18;;;;;;;13.07;6.50;;;;;1.20;96093.00;;;;7397710;19;20155;-80
2023/12/16 04:55:46;;;;;;;18.37;6.73;;;;;1.30;96086.00;;;;7399340;19;20179;-80
2023/12/16 04:58:27;;;;;;;15.30;6.90;;;;;1.20;96093.00;;;;7397036;19;20144;-81
2023/12/16 05:00:54;;;;;;;13.00;6.80;;;;;1.20;96097.00;;;;7397129;19;20144;-79
2023/12/16 05:03:30;;;;;;;14.97;6.40;;;;;1.10;96092.00;;;;7397674;19;20172;-75
2023/12/16 05:06:05;;;;;;;11.70;6.13;;;;;1.10;96086.00;;;;7397054;19;20149;-76
2023/12/16 05:08:41;;;;;;;11.33;5.30;;;;;1.00;96097.00;;;;7397847;19;20607;-75
2023/12/16 05:11:09;;;;;;;16.13;6.40;;;;;0.90;96084.00;;;;7396865;19;20129;-75
2023/12/16 05:13:47;;;;;;;9.27;5.40;;;;;0.80;96083.00;;;;7396022;19;20644;-75
2023/12/16 05:16:21;;;;;;;11.60;6.10;;;;;0.80;96096.00;;;;7397649;19;20149;-77
2023/12/16 05:18:55;;;;;;;9.23;5.77;;;;;0.90;96092.00;;;;7397077;19;20157;-74
2023/12/16 05:21:23;;;;;;;13.93;6.13;;;;;0.80;96094.00;;;;7379324;19;20185;-74
2023/12/16 05:23:58;;;;;;;14.80;6.10;;;;;0.90;96088.00;;;;7377891;19;20313;-75
2023/12/16 05:26:32;;;;;;;20.03;5.80;;;;;0.80;96095.00;;;;7385251;19;20598;-75
2023/12/16 05:29:06;;;;;;;11.33;5.43;;;;;0.60;96096.00;;;;7387015;19;20168;-74
2023/12/16 05:31:41;;;;;;;14.87;5.73;;;;;0.60;96095.00;;;;7385837;19;20139;-75
2023/12/16 05:34:11;;;;;;;10.60;5.53;;;;;0.80;96089.00;;;;7385423;19;20139;-75
2023/12/16 05:36:47;;;;;;;12.57;5.40;;;;;0.80;96094.00;;;;7384599;19;20158;-75
2023/12/16 05:39:21;;;;;;;14.60;5.90;;;;;0.70;96089.00;;;;7386259;19;20133;-77
2023/12/16 05:41:54;;;;;;;14.60;5.83;;;;;0.70;96093.00;;;;7383620;19;20145;-74
2023/12/16 05:44:29;;;;;;;13.00;5.57;;;;;0.70;96091.00;;;;7384376;19;20147;-75
2023/12/16 05:47:08;;;;;;;13.93;5.77;;;;;0.60;96106.00;;;;7385168;19;20608;-74
2023/12/16 05:49:36;;;;;;;19.77;6.17;;;;;0.60;96108.00;;;;7386144;19;20588;-74
2023/12/16 05:52:19;;;;;;;11.00;5.40;;;;;0.50;96099.00;;;;7384156;19;20152;-74
2023/12/16 05:54:47;;;;;;;18.00;5.63;;;;;0.40;96105.00;;;;7383771;19;20628;-73
2023/12/16 05:57:21;;;;;;;12.63;5.30;;;;;0.30;96104.00;;;;7384268;19;20149;-73
2023/12/16 05:59:50;;;;;;;16.30;6.07;;;;;0.20;96090.00;;;;7385729;19;20153;-73
2023/12/16 06:02:19;;;;;;;12.17;4.83;;;;;0.30;96089.00;;;;7384942;19;20141;-73
2023/12/16 06:04:53;;;;;;;12.00;5.30;;;;;0.10;96094.00;;;;7383475;19;20155;-73
2023/12/16 06:07:22;;;;;;;10.10;5.33;;;;;0.20;96098.00;;;;7384094;19;20145;-73
2023/12/16 06:09:56;;;;;;;10.20;5.00;;;;;0.30;96103.00;;;;7384183;19;20155;-73
2023/12/16 06:12:36;;;;;;;8.07;4.83;;;;;0.40;96098.00;;;;7391506;19;20156;-74
2023/12/16 06:15:07;;;;;;;9.73;4.57;;;;;0.40;96106.00;;;;7390766;19;20148;-78
2023/12/16 06:17:42;;;;;;;15.57;5.27;;;;;0.30;96100.00;;;;7390423;19;20149;-74
2023/12/16 06:20:12;;;;;;;13.17;5.50;;;;;0.30;96095.00;;;;7390365;19;20155;-73
2023/12/16 06:22:47;;;;;;;15.83;4.90;;;;;0.40;96109.00;;;;7389994;19;20152;-73
2023/12/16 06:25:17;;;;;;;17.13;4.77;;;;;0.50;96112.00;;;;7389836;19;20208;-75
2023/12/16 06:27:51;;;;;;;7.63;4.77;;;;;0.40;96109.00;;;;7390263;19;20214;-73
2023/12/16 06:30:18;;;;;;;12.90;4.90;;;;;0.50;96113.00;;;;7390631;19;20152;-74
2023/12/16 06:32:53;;;;;;;8.73;5.03;;;;;0.40;96110.00;;;;7390986;19;20257;-73
2023/12/16 06:35:35;;;;;;;14.83;5.37;;;;;0.40;96137.00;;;;7390795;19;20596;-73
2023/12/16 06:38:03;;;;;;;12.30;5.27;;;;;0.40;96127.00;;;;7391661;19;20194;-74
2023/12/16 06:40:37;;;;;;;10.53;5.20;;;;;0.40;96119.00;;;;7389239;19;20166;-74
2023/12/16 06:43:06;;;;;;;12.90;5.07;;;;;0.40;96131.00;;;;7390491;19;20168;-74
2023/12/16 06:45:40;;;;;;;13.07;5.10;;;;;0.30;96126.00;;;;7390444;19;20154;-74
2023/12/16 06:48:08;;;;;;;16.97;5.10;;;;;0.30;96122.00;;;;7391111;19;20514;-76
2023/12/16 06:50:44;;;;;;;12.57;4.87;;;;;0.40;96136.00;;;;7389249;19;20137;-74
2023/12/16 06:53:25;;;;;;;15.33;4.53;;;;;0.30;96131.00;;;;7391627;19;20155;-74
2023/12/16 06:55:53;;;;;;;13.00;4.63;;;;;0.20;96137.00;;;;7390443;19;20486;-74
2023/12/16 06:58:27;;;;;;;10.43;4.60;;;;;0.20;96134.00;;;;7389395;19;20145;-75
2023/12/16 07:01:02;;;;;;;17.73;4.63;;;;;0.00;96138.00;;;;7392383;19;20525;-73
2023/12/16 07:03:37;;;;;;;12.33;4.47;;;;;0.00;96130.00;;;;7391320;19;20152;-74
2023/12/16 07:06:06;;;;;;;16.23;4.27;;;;;0.00;96125.00;;;;7392646;19;20148;-74
2023/12/16 07:08:43;;;;;;;9.03;3.97;;;;;0.00;96131.00;;;;7389427;19;20124;-74
2023/12/16 07:11:14;;;;;;;11.30;3.83;;;;;0.00;96132.00;;;;7390474;19;20461;-74
2023/12/16 07:13:48;;;;;;;16.67;5.17;;;;;0.00;96129.00;;;;7389119;19;20187;-74
2023/12/16 07:16:24;;;;;;;12.40;4.43;;;;;0.00;96134.00;;;;7390246;19;20215;-76
2023/12/16 07:18:59;;;;;;;10.47;4.00;;;;;0.00;96128.00;;;;7391118;19;20149;-76
2023/12/16 07:21:33;;;;;;;17.13;4.47;;;;;-0.10;96130.00;;;;7390071;19;20144;-75
2023/12/16 07:24:08;;;;;;;10.40;4.30;;;;;-0.10;96140.00;;;;7391838;19;20144;-77
2023/12/16 07:26:35;;;;;;;11.97;4.00;;;;;0.00;96140.00;;;;7387874;19;20611;-76
2023/12/16 07:29:09;;;;;;;10.83;3.83;;;;;0.00;96142.00;;;;7390668;19;20144;-77
2023/12/16 07:31:37;;;;;;;11.67;4.00;;;;;0.10;96139.00;;;;7391646;19;20600;-77
2023/12/16 07:34:05;;;;;;;13.83;3.57;;;;;0.30;96137.00;;;;7388694;19;20165;-76
2023/12/16 07:36:39;;;;;;;9.37;3.60;;;;;0.30;96149.00;;;;7390779;19;20611;-77
2023/12/16 07:39:14;;;;;;;14.23;3.50;;;;;0.30;96142.00;;;;7390010;19;20173;-78
2023/12/16 07:41:42;;;;;;;10.53;4.43;;;;;0.40;96152.00;;;;7390620;19;20578;-77
2023/12/16 07:44:16;;;;;;;10.13;3.80;;;;;0.40;96148.00;;;;7391825;19;20141;-76
2023/12/16 07:46:47;;;;;;;11.03;3.57;;;;;0.50;96154.00;;;;7390582;19;20593;-77
2023/12/16 07:49:25;;;;;;;13.43;3.50;;;;;0.60;96151.00;;;;7388996;19;21343;-79
2023/12/16 07:52:00;;;;;;;8.87;3.57;;;;;0.70;96149.00;;;;7388895;19;20187;-78
2023/12/16 07:54:42;;;;;;;10.67;3.73;;;;;0.70;96152.00;;;;7388444;19;20170;-76
2023/12/16 07:57:11;;;;;;;5.47;3.50;;;;;0.80;96156.00;;;;7389722;19;20121;-79
2023/12/16 07:59:46;;;;;;;10.77;3.67;;;;;0.90;96152.00;;;;7389312;19;20173;-78
2023/12/16 08:02:15;;;;;;;13.77;3.80;;;;;1.00;96154.00;;;;7388514;19;20189;-78
2023/12/16 08:04:53;;;;;;;9.30;3.53;;;;;1.00;96158.00;;;;7388954;19;20131;-77
2023/12/16 08:07:27;;;;;;;13.73;3.60;;;;;1.10;96165.00;;;;7390327;19;20512;-77
2023/12/16 08:09:55;;;;;;;10.43;3.67;;;;;1.20;96168.00;;;;7389720;19;20787;-78
2023/12/16 08:12:30;;;;;;;9.67;3.23;;;;;1.20;96176.00;;;;7387844;19;20148;-78
2023/12/16 08:15:02;;;;;;;6.90;3.03;;;;;1.30;96174.00;;;;7388279;19;20146;-80
2023/12/16 08:17:37;;;;;;;6.03;3.20;;;;;1.40;96180.00;;;;7387803;19;20463;-80
2023/12/16 08:20:06;;;;;;;13.67;3.57;;;;;1.60;96182.00;;;;7386188;19;20145;-78
2023/12/16 08:22:35;;;;;;;6.77;3.03;;;;;1.60;96176.00;;;;7387744;19;20129;-77
2023/12/16 08:25:10;;;;;;;11.43;3.33;;;;;1.70;96187.00;;;;7385909;19;20161;-78
2023/12/16 08:27:50;;;;;;;7.03;3.00;;;;;1.70;96175.00;;;;7387073;19;20145;-78
2023/12/16 08:30:28;;;;;;;13.97;3.57;;;;;1.70;96177.00;;;;7387678;19;20223;-76
2023/12/16 08:32:58;;;;;;;9.87;3.30;;;;;1.80;96186.00;;;;7383893;19;20163;-76
2023/12/16 08:35:36;;;;;;;6.07;2.70;;;;;1.90;96187.00;;;;7386488;19;20129;-78
2023/12/16 08:38:11;;;;;;;10.03;3.10;;;;;2.00;96186.00;;;;7385411;19;20156;-77
2023/12/16 08:40:39;;;;;;;3.70;2.40;;;;;2.00;96183.00;;;;7384999;19;20646;-77
2023/12/16 08:43:14;;;;;;;7.37;2.90;;;;;2.10;96189.00;;;;7386545;19;20133;-76
2023/12/16 08:45:48;;;;;;;6.47;2.80;;;;;2.30;96193.00;;;;7385351;19;20132;-76
2023/12/16 08:48:22;;;;;;;12.03;2.57;;;;;2.40;96203.00;;;;7386177;19;20493;-77
2023/12/16 08:50:50;;;;;;;16.53;3.67;;;;;2.50;96208.00;;;;7385896;19;20494;-76
2023/12/16 08:53:30;;;;;;;4.00;2.50;;;;;2.50;96204.00;;;;7384931;19;20576;-75
2023/12/16 08:56:06;;;;;;;6.07;2.47;;;;;2.70;96211.00;;;;7385644;19;20211;-78
2023/12/16 08:58:38;;;;;;;4.70;2.60;;;;;2.60;96215.00;;;;7387001;19;20580;-78
2023/12/16 09:01:13;;;;;;;12.63;3.40;;;;;2.70;96209.00;;;;7386274;19;20172;-78
2023/12/16 09:03:47;;;;;;;5.10;2.70;;;;;2.80;96209.00;;;;7386606;19;20136;-76
2023/12/16 09:06:21;;;;;;;6.23;3.03;;;;;2.90;96214.00;;;;7385267;19;20521;-76
2023/12/16 09:08:49;;;;;;;9.83;3.30;;;;;3.20;96215.00;;;;7384357;19;20136;-76
2023/12/16 09:11:23;;;;;;;9.93;2.80;;;;;3.40;96219.00;;;;7384337;19;20149;-76
2023/12/16 09:13:57;;;;;;;11.07;3.03;;;;;3.30;96219.00;;;;7382597;19;20184;-77
2023/12/16 09:16:32;;;;;;;5.37;2.70;;;;;3.40;96227.00;;;;7384289;19;20148;-78
2023/12/16 09:19:07;;;;;;;6.00;2.67;;;;;3.60;96221.00;;;;7383294;19;20213;-78
2023/12/16 09:21:35;;;;;;;9.47;3.50;;;;;3.50;96239.00;;;;7383331;19;20144;-76
2023/12/16 09:24:10;;;;;;;5.83;2.70;;;;;3.60;96235.00;;;;7384026;19;20613;-75
2023/12/16 09:26:44;;;;;;;6.43;3.10;;;;;3.90;96239.00;;;;7383043;19;20148;-75
2023/12/16 09:29:18;;;;;;;9.83;2.67;;;;;3.70;96241.00;;;;7383396;19;20149;-76
2023/12/16 09:31:47;;;;;;;8.53;2.63;;;;;3.80;96239.00;;;;7382896;19;20129;-76
2023/12/16 09:34:16;;;;;;;5.13;2.73;;;;;4.00;96243.00;;;;7384507;19;20561;-76
2023/12/16 09:36:50;;;;;;;8.43;2.90;;;;;4.00;96247.00;;;;7383144;19;20155;-76
2023/12/16 09:39:29;;;;;;;7.73;2.63;;;;;4.60;96244.00;;;;7382247;19;20537;-75
2023/12/16 09:42:03;;;;;;;10.70;2.57;;;;;4.30;96245.00;;;;7382956;19;20125;-76
2023/12/16 09:44:36;;;;;;;10.30;2.43;;;;;4.40;96244.00;;;;7384613;19;20487;-80
2023/12/16 09:47:14;;;;;;;8.73;2.53;;;;;4.20;96247.00;;;;7394164;19;20129;-82
2023/12/16 09:49:48;;;;;;;7.33;2.80;;;;;4.70;96244.00;;;;7392044;19;20581;-81
2023/12/16 09:52:28;;;;;;;5.87;2.30;;;;;4.20;96247.00;;;;7392813;19;20157;-82
2023/12/16 09:54:56;;;;;;;7.13;2.33;;;;;4.20;96250.00;;;;7392627;19;20145;-82
2023/12/16 09:57:36;;;;;;;6.63;2.67;;;;;4.60;96248.00;;;;7391845;19;20156;-81
2023/12/16 10:00:12;;;;;;;6.57;2.60;;;;;4.40;96243.00;;;;7392138;19;20165;-81
2023/12/16 10:02:53;;;;;;;5.67;2.17;;;;;4.20;96236.00;;;;7390621;19;20583;-81
2023/12/16 10:05:28;;;;;;;4.87;2.30;;;;;4.60;96243.00;;;;7392419;19;20124;-80
2023/12/16 10:08:05;;;;;;;9.77;2.70;;;;;4.70;96242.00;;;;7390225;19;20163;-83
2023/12/16 10:10:39;;;;;;;6.63;2.60;;;;;4.80;96252.00;;;;7390915;19;20129;-80
2023/12/16 10:13:07;;;;;;;9.27;2.70;;;;;4.90;96239.00;;;;7390119;19;20181;-81
2023/12/16 10:15:41;;;;;;;5.53;2.40;;;;;4.70;96244.00;;;;7390399;19;20140;-81
2023/12/16 10:18:09;;;;;;;5.10;2.33;;;;;4.40;96238.00;;;;7390174;19;20155;-81
2023/12/16 10:20:36;;;;;;;6.10;2.47;;;;;4.60;96236.00;;;;7389233;19;20132;-80
2023/12/16 10:23:13;;;;;;;6.33;2.53;;;;;5.10;96235.00;;;;7390076;19;20140;-82
2023/12/16 10:25:41;;;;;;;6.57;2.83;;;;;4.60;96238.00;;;;7390068;19;20152;-79
2023/12/16 10:28:15;;;;;;;6.87;2.83;;;;;4.80;96229.00;;;;7389657;19;20519;-80
2023/12/16 10:30:43;;;;;;;8.50;2.63;;;;;5.00;96227.00;;;;7389626;19;20161;-80
2023/12/16 10:33:17;;;;;;;11.07;2.73;;;;;4.90;96237.00;;;;7391195;19;20120;-81
2023/12/16 10:35:51;;;;;;;5.17;2.23;;;;;4.90;96223.00;;;;7389582;19;20145;-81
2023/12/16 10:38:19;;;;;;;12.70;2.90;;;;;5.00;96221.00;;;;7390432;19;20125;-81
2023/12/16 10:40:53;;;;;;;5.60;2.63;;;;;5.30;96221.00;;;;7389375;19;20160;-80
2023/12/16 10:43:23;;;;;;;6.23;2.80;;;;;5.50;96214.00;;;;7388127;19;20200;-79
2023/12/16 10:45:51;;;;;;;5.87;2.90;;;;;5.50;96214.00;;;;7389555;19;20153;-83
2023/12/16 10:48:29;;;;;;;5.40;2.90;;;;;5.90;96207.00;;;;7388922;19;20180;-82
2023/12/16 10:51:00;;;;;;;6.93;3.10;;;;;5.90;96203.00;;;;7388377;19;20136;-80
2023/12/16 10:53:52;;;;;;;6.87;2.70;;;;;6.20;96204.00;;;;7390023;19;20539;-77
2023/12/16 10:56:29;;;;;;;5.20;2.97;;;;;5.90;96200.00;;;;7387496;19;20154;-76
2023/12/16 10:59:14;;;;;;;8.10;2.83;;;;;5.90;96207.00;;;;7386988;19;20176;-77
2023/12/16 11:01:56;;;;;;;9.93;3.30;;;;;6.50;96207.00;;;;7386333;19;20158;-75
2023/12/16 11:04:39;;;;;;;6.35;2.70;;;;;6.10;96194.00;;;;7388472;19;20129;-75
2023/12/16 11:07:18;;;;;;;6.93;3.00;;;;;6.60;96191.00;;;;7387743;19;20132;-76
2023/12/16 11:09:52;;;;;;;6.93;2.53;;;;;5.70;96189.00;;;;7386327;19;20599;-77
2023/12/16 11:12:21;;;;;;;6.90;2.30;;;;;6.10;96200.00;;;;7384927;19;20749;-76
2023/12/16 11:14:59;;;;;;;7.32;2.40;;;;;6.20;96201.00;;;;7386689;19;20454;-74
2023/12/16 11:18:02;;;;;;;7.70;2.30;;;;;5.90;96197.00;;;;7385396;19;20152;-77
2023/12/16 11:20:44;;;;;;;5.43;2.95;;;;;6.70;96185.00;;;;7386513;19;20161;-76
2023/12/16 11:23:17;;;;;;;7.75;2.45;;;;;7.30;96195.00;;;;7386577;19;20501;-76
2023/12/16 11:25:53;;;;;;;6.72;2.53;;;;;6.40;96188.00;;;;7387914;19;20180;-76
2023/12/16 11:28:20;;;;;;;6.70;2.78;;;;;6.70;96189.00;;;;7385145;19;20149;-78
2023/12/16 11:30:57;;;;;;;5.07;2.25;;;;;6.80;96190.00;;;;7386313;19;20147;-76
2023/12/16 11:33:48;;;;;;;6.10;2.45;;;;;6.20;96190.00;;;;7386035;19;20132;-77
2023/12/16 11:37:02;;;;;;;3.97;2.53;;;;;6.30;96190.00;;;;7386258;19;20133;-76
2023/12/16 11:39:44;;;;;;;4.22;2.38;;;;;6.40;96197.00;;;;7385153;19;20622;-77
2023/12/16 11:42:14;;;;;;;8.55;2.60;;;;;6.20;96195.00;;;;7385702;19;20596;-76
2023/12/16 11:44:50;;;;;;;5.97;2.30;;;;;6.10;96195.00;;;;7387264;19;20128;-77
2023/12/16 11:47:29;;;;;;;6.50;2.58;;;;;6.30;96199.00;;;;7386919;19;20188;-76
2023/12/16 11:50:06;;;;;;;4.03;2.03;;;;;6.80;96192.00;;;;7386478;19;20129;-75
2023/12/16 11:52:39;;;;;;;5.53;2.35;;;;;7.00;96194.00;;;;7384324;19;20152;-74
2023/12/16 11:55:23;;;;;;;6.53;2.03;;;;;6.70;96194.00;;;;7384899;19;20148;-76
2023/12/16 11:57:52;;;;;;;5.18;1.90;;;;;6.60;96189.00;;;;7383981;19;20156;-74
2023/12/16 12:00:27;;;;;;;3.63;1.88;;;;;7.80;96181.00;;;;7385376;19;20131;-78
2023/12/16 12:03:02;;;;;;;4.07;1.60;;;;;7.70;96178.00;;;;7384459;19;20176;-76
2023/12/16 12:05:37;;;;;;;6.75;1.80;;;;;8.50;96176.00;;;;7385989;19;20159;-78
2023/12/16 12:08:12;;;;;;;5.28;1.92;;;;;9.90;96168.00;;;;7385195;19;20167;-76
2023/12/16 12:10:40;;;;;;;2.90;1.50;;;;;11.10;96166.00;;;;7386889;19;20133;-77
2023/12/16 12:13:10;;;;;;;3.22;1.60;;;;;11.70;96168.00;;;;7384934;19;20160;-78
2023/12/16 12:15:45;;;;;;;5.00;1.90;;;;;12.00;96151.00;;;;7384824;19;20160;-78
2023/12/16 12:18:20;;;;;;;4.30;1.60;;;;;12.60;96144.00;;;;7386233;19;20768;-76
2023/12/16 12:20:48;;;;;;;5.13;1.63;;;;;12.30;96136.00;;;;7384987;19;20129;-77
2023/12/16 12:23:22;;;;;;;4.22;1.63;;;;;11.90;96126.00;;;;7386635;19;20135;-77
2023/12/16 12:25:55;;;;;;;4.47;1.70;;;;;11.30;96120.00;;;;7385045;19;20580;-78
2023/12/16 12:28:29;;;;;;;5.22;1.45;;;;;11.70;96107.00;;;;7385833;19;20129;-77
2023/12/16 12:31:02;;;;;;;2.88;1.33;;;;;11.20;96117.00;;;;7387106;19;20173;-78
2023/12/16 12:33:36;;;;;;;3.13;1.90;;;;;11.40;96128.00;;;;7385156;19;20223;-79
2023/12/16 12:36:05;;;;;;;7.22;2.55;;;;;12.30;96140.00;;;;7379811;19;20610;-77
2023/12/16 12:38:33;;;;;;;4.68;2.13;;;;;11.50;96139.00;;;;7381290;19;20144;-77
2023/12/16 12:41:09;;;;;;;6.45;2.88;;;;;10.90;96123.00;;;;7382473;19;20132;-78
2023/12/16 12:43:36;;;;;;;6.05;2.40;;;;;11.40;96134.00;;;;7383179;19;20196;-78
2023/12/16 12:46:12;;;;;;;3.90;2.10;;;;;10.40;96159.00;;;;7382131;19;20136;-78
2023/12/16 12:48:56;;;;;;;4.53;2.42;;;;;9.00;96147.00;;;;7381166;19;20499;-76
2023/12/16 12:51:57;;;;;;;4.32;2.30;;;;;8.10;96142.00;;;;7381227;19;20147;-77